createdAt,value
2023-02-18T00:01:37.342Z,84
2023-02-18T00:05:34.362Z,84
2023-02-18T00:07:36.545Z,83
2023-02-18T00:09:37.317Z,83
2023-02-18T00:11:36.006Z,83
2023-02-18T00:13:35.797Z,83
2023-02-18T00:17:36.953Z,84
2023-02-18T00:19:35.163Z,84
2023-02-18T00:21:35.729Z,83
2023-02-18T00:23:36.739Z,83
2023-02-18T00:25:40.473Z,83
2023-02-18T00:29:35.443Z,83
2023-02-18T00:31:34.869Z,83
2023-02-18T00:33:35.212Z,83
2023-02-18T00:35:34.623Z,83
2023-02-18T00:37:35.360Z,83
2023-02-18T00:41:36.020Z,83
2023-02-18T00:43:35.688Z,83
2023-02-18T00:49:33.891Z,83
2023-02-18T00:53:36.703Z,83
2023-02-18T00:55:36.816Z,83
2023-02-18T00:59:33.778Z,83
2023-02-18T01:01:35.720Z,83
2023-02-18T01:05:37.191Z,83
2023-02-18T01:07:34.953Z,83
2023-02-18T01:11:34.959Z,83
2023-02-18T01:13:34.886Z,83
2023-02-18T01:17:36.450Z,83
2023-02-18T01:19:36.085Z,83
2023-02-18T01:23:33.598Z,83
2023-02-18T01:25:33.907Z,83
2023-02-18T01:29:34.770Z,82
2023-02-18T01:31:36.528Z,83
2023-02-18T01:35:36.446Z,83
2023-02-18T01:37:33.924Z,83
2023-02-18T01:41:35.094Z,83
2023-02-18T01:43:34.500Z,83
2023-02-18T01:45:37.108Z,83
2023-02-18T01:47:36.917Z,83
2023-02-18T01:49:35.266Z,83
2023-02-18T01:51:36.780Z,83
2023-02-18T01:55:35.181Z,83
2023-02-18T01:59:35.963Z,83
2023-02-18T02:01:36.673Z,83
2023-02-18T02:03:36.728Z,83
2023-02-18T02:05:33.945Z,83
2023-02-18T02:07:34.875Z,83
2023-02-18T02:09:36.605Z,83
2023-02-18T02:11:36.041Z,83
2023-02-18T02:13:37.261Z,83
2023-02-18T02:17:33.923Z,83
2023-02-18T02:19:36.345Z,83
2023-02-18T02:23:33.925Z,83
2023-02-18T02:25:36.820Z,83
2023-02-18T02:29:36.963Z,83
2023-02-18T02:31:33.906Z,83
2023-02-18T02:33:36.717Z,83
2023-02-18T02:35:33.916Z,83
2023-02-18T02:37:36.132Z,83
2023-02-18T02:41:34.030Z,83
2023-02-18T02:43:34.191Z,83
2023-02-18T02:45:36.442Z,83
2023-02-18T02:47:33.867Z,83
2023-02-18T02:49:37.050Z,83
2023-02-18T02:53:33.953Z,83
2023-02-18T02:55:32.519Z,83
2023-02-18T02:59:37.034Z,83
2023-02-18T03:01:34.058Z,83
2023-02-18T03:05:35.503Z,83
2023-02-18T03:07:35.710Z,83
2023-02-18T03:09:37.207Z,83
2023-02-18T03:11:36.881Z,83
2023-02-18T03:13:37.073Z,83
2023-02-18T03:17:34.005Z,83
2023-02-18T03:19:32.462Z,83
2023-02-18T03:21:37.242Z,83
2023-02-18T03:23:36.098Z,83
2023-02-18T03:25:35.989Z,83
2023-02-18T03:29:36.027Z,83
2023-02-18T03:31:34.880Z,83
2023-02-18T03:33:37.098Z,83
2023-02-18T03:35:33.962Z,83
2023-02-18T03:37:34.010Z,83
2023-02-18T03:39:36.176Z,83
2023-02-18T03:41:36.827Z,83
2023-02-18T03:43:37.193Z,83
2023-02-18T03:45:37.288Z,83
2023-02-18T03:47:34.244Z,83
2023-02-18T03:49:36.231Z,83
2023-02-18T03:51:37.430Z,83
2023-02-18T03:53:34.446Z,83
2023-02-18T03:55:31.413Z,83
2023-02-18T03:57:36.816Z,83
2023-02-18T03:59:33.956Z,83
2023-02-18T04:01:34.254Z,83
2023-02-18T04:05:35.646Z,83
2023-02-18T04:07:35.373Z,83
2023-02-18T04:09:36.772Z,83
2023-02-18T04:11:35.376Z,83
2023-02-18T04:13:35.112Z,83
2023-02-18T04:15:36.128Z,83
2023-02-18T04:17:33.956Z,83
2023-02-18T04:19:36.310Z,83
2023-02-18T04:23:34.515Z,83
2023-02-18T04:25:34.789Z,83
2023-02-18T04:29:35.183Z,83
2023-02-18T04:31:34.061Z,83
2023-02-18T04:33:36.646Z,83
2023-02-18T04:35:37.380Z,83
2023-02-18T04:37:40.279Z,83
2023-02-18T04:39:37.055Z,83
2023-02-18T04:41:36.879Z,83
2023-02-18T04:43:35.693Z,83
2023-02-18T04:45:36.642Z,83
2023-02-18T04:47:43.518Z,83
2023-02-18T04:49:34.111Z,83
2023-02-18T04:53:34.081Z,83
2023-02-18T04:55:33.569Z,83
2023-02-18T04:59:37.304Z,83
2023-02-18T05:01:34.875Z,83
2023-02-18T05:03:37.187Z,83
2023-02-18T05:05:34.793Z,83
2023-02-18T05:07:36.108Z,83
2023-02-18T05:09:36.313Z,83
2023-02-18T05:11:34.365Z,83
2023-02-18T05:13:35.735Z,83
2023-02-18T05:17:34.739Z,83
2023-02-18T05:19:36.061Z,82
2023-02-18T05:21:37.755Z,83
2023-02-18T05:23:35.661Z,83
2023-02-18T05:25:35.690Z,83
2023-02-18T05:29:36.876Z,83
2023-02-18T05:31:35.045Z,83
2023-02-18T05:33:36.994Z,83
2023-02-18T05:35:37.110Z,83
2023-02-18T05:37:36.945Z,83
2023-02-18T05:42:06.333Z,83
2023-02-18T05:43:33.209Z,83
2023-02-18T05:45:37.493Z,82
2023-02-18T05:47:35.274Z,83
2023-02-18T05:49:35.641Z,83
2023-02-18T05:51:37.666Z,83
2023-02-18T05:53:34.569Z,83
2023-02-18T05:55:34.952Z,83
2023-02-18T05:57:36.937Z,83
2023-02-18T05:59:35.993Z,83
2023-02-18T06:01:36.173Z,83
2023-02-18T06:03:37.303Z,82
2023-02-18T06:05:36.256Z,83
2023-02-18T06:07:34.499Z,83
2023-02-18T06:11:35.952Z,83
2023-02-18T06:13:35.546Z,83
2023-02-18T06:17:35.009Z,83
2023-02-18T06:19:36.416Z,82
2023-02-18T06:23:34.849Z,82
2023-02-18T06:25:35.343Z,82
2023-02-18T06:29:36.206Z,82
2023-02-18T06:31:34.664Z,82
2023-02-18T06:35:34.543Z,82
2023-02-18T06:37:35.487Z,82
2023-02-18T06:39:37.499Z,83
2023-02-18T06:41:34.961Z,83
2023-02-18T06:43:40.833Z,83
2023-02-18T06:47:37.185Z,83
2023-02-18T06:49:37.715Z,83
2023-02-18T06:53:37.649Z,83
2023-02-18T06:55:36.398Z,83
2023-02-18T06:59:36.444Z,83
2023-02-18T07:01:36.119Z,83
2023-02-18T07:03:37.283Z,83
2023-02-18T07:05:35.030Z,83
2023-02-18T07:07:35.240Z,83
2023-02-18T07:11:39.698Z,84
2023-02-18T07:13:37.414Z,83
2023-02-18T07:15:36.667Z,84
2023-02-18T07:17:35.520Z,83
2023-02-18T07:19:35.515Z,84
2023-02-18T07:21:36.979Z,84
2023-02-18T07:23:35.649Z,84
2023-02-18T07:25:32.903Z,83
2023-02-18T07:29:36.178Z,83
2023-02-18T07:31:35.139Z,83
2023-02-18T07:33:37.074Z,83
2023-02-18T07:35:36.325Z,83
2023-02-18T07:37:35.234Z,83
2023-02-18T07:39:37.506Z,83
2023-02-18T07:41:36.053Z,83
2023-02-18T07:43:34.544Z,83
2023-02-18T07:45:36.953Z,83
2023-02-18T07:47:36.816Z,83
2023-02-18T07:49:36.176Z,83
2023-02-18T07:51:37.763Z,83
2023-02-18T07:53:35.526Z,83
2023-02-18T07:55:36.015Z,83
2023-02-18T07:57:37.123Z,83
2023-02-18T07:59:33.408Z,83
2023-02-18T08:01:35.215Z,82
2023-02-18T08:03:37.881Z,82
2023-02-18T08:05:34.517Z,82
2023-02-18T08:07:37.659Z,81
2023-02-18T08:09:37.034Z,81
2023-02-18T08:11:34.996Z,80
2023-02-18T08:13:36.499Z,81
2023-02-18T08:15:37.746Z,80
2023-02-18T08:17:35.644Z,81
2023-02-18T08:19:37.664Z,80
2023-02-18T08:23:36.800Z,80
2023-02-18T08:25:35.522Z,80
2023-02-18T08:27:37.842Z,80
2023-02-18T08:29:37.640Z,80
2023-02-18T08:31:35.009Z,80
2023-02-18T08:35:34.887Z,80
2023-02-18T08:37:52.305Z,80
2023-02-18T08:39:39.250Z,80
2023-02-18T08:41:35.611Z,80
2023-02-18T08:43:36.115Z,80
2023-02-18T08:45:36.887Z,80
2023-02-18T08:48:13.802Z,80
2023-02-18T08:49:34.524Z,79
2023-02-18T08:51:37.658Z,79
2023-02-18T08:53:37.392Z,80
2023-02-18T08:55:36.053Z,80
2023-02-18T08:59:34.511Z,81
2023-02-18T09:01:36.657Z,81
2023-02-18T09:05:35.065Z,80
2023-02-18T09:07:34.594Z,81
2023-02-18T09:11:36.224Z,80
2023-02-18T09:13:37.559Z,80
2023-02-18T09:17:34.736Z,80
2023-02-18T09:19:37.689Z,80
2023-02-18T09:23:36.425Z,80
2023-02-18T09:25:39.211Z,80
2023-02-18T09:27:35.879Z,80
2023-02-18T09:29:34.586Z,79
2023-02-18T09:31:36.160Z,80
2023-02-18T09:35:36.113Z,80
2023-02-18T09:37:34.570Z,80
2023-02-18T09:41:36.055Z,79
2023-02-18T09:43:36.453Z,79
2023-02-18T09:45:37.141Z,79
2023-02-18T09:47:37.704Z,78
2023-02-18T09:49:35.968Z,77
2023-02-18T09:51:37.846Z,78
2023-02-18T09:53:33.031Z,78
2023-02-18T09:57:35.187Z,78
2023-02-18T09:59:31.597Z,78
2023-02-18T10:01:31.172Z,77
2023-02-18T10:03:34.071Z,77
2023-02-18T10:05:32.740Z,76
2023-02-18T10:07:31.052Z,77
2023-02-18T10:09:33.742Z,77
2023-02-18T10:11:33.076Z,76
2023-02-18T10:13:33.024Z,77
2023-02-18T10:15:34.366Z,76
2023-02-18T10:17:30.619Z,76
2023-02-18T10:19:32.876Z,75
2023-02-18T10:23:34.196Z,75
2023-02-18T10:25:31.052Z,76
2023-02-18T10:29:30.583Z,75
2023-02-18T10:31:31.093Z,77
2023-02-18T10:33:34.003Z,75
2023-02-18T10:35:32.703Z,75
2023-02-18T10:37:31.096Z,78
2023-02-18T10:39:33.941Z,75
2023-02-18T10:41:30.807Z,76
2023-02-18T10:43:27.771Z,76
2023-02-18T10:47:33.834Z,74
2023-02-18T10:49:32.314Z,75
2023-02-18T10:51:33.750Z,75
2023-02-18T10:53:30.961Z,74
2023-02-18T10:55:32.693Z,74
2023-02-18T10:57:33.750Z,75
2023-02-18T10:59:31.091Z,75
2023-02-18T11:01:31.012Z,75
2023-02-18T11:03:33.649Z,74
2023-02-18T11:05:32.417Z,75
2023-02-18T11:07:31.936Z,75
2023-02-18T11:09:33.845Z,75
2023-02-18T11:11:33.909Z,76
2023-02-18T11:13:31.173Z,75
2023-02-18T11:15:32.992Z,75
2023-02-18T11:17:31.352Z,76
2023-02-18T11:19:32.761Z,75
2023-02-18T11:21:37.551Z,75
2023-02-18T11:23:31.043Z,75
2023-02-18T11:25:31.132Z,75
2023-02-18T11:27:34.194Z,75
2023-02-18T11:29:33.946Z,75
2023-02-18T11:33:33.552Z,75
2023-02-18T11:35:36.579Z,76
2023-02-18T11:37:33.858Z,76
2023-02-18T11:39:34.153Z,75
2023-02-18T11:41:34.217Z,76
2023-02-18T11:47:31.910Z,77
2023-02-18T11:49:32.652Z,77
2023-02-18T11:53:31.409Z,77
2023-02-18T11:55:32.444Z,76
2023-02-18T11:59:28.066Z,76
2023-02-18T12:01:30.985Z,75
2023-02-18T12:03:35.107Z,75
2023-02-18T12:05:30.548Z,76
2023-02-18T12:07:32.361Z,75
2023-02-18T12:09:33.569Z,77
2023-02-18T12:11:30.765Z,76
2023-02-18T12:13:31.153Z,76
2023-02-18T12:17:30.908Z,76
2023-02-18T12:19:31.096Z,75
2023-02-18T12:21:33.466Z,76
2023-02-18T12:23:30.828Z,76
2023-02-18T12:25:34.251Z,75
2023-02-18T12:29:30.874Z,76
2023-02-18T12:31:33.291Z,74
2023-02-18T12:33:36.789Z,74
2023-02-18T12:35:31.053Z,75
2023-02-18T12:37:30.861Z,74
2023-02-18T12:39:36.003Z,75
2023-02-18T12:41:31.055Z,75
2023-02-18T12:43:31.203Z,76
2023-02-18T12:45:33.900Z,75
2023-02-18T12:47:31.034Z,74
2023-02-18T12:49:33.977Z,75
2023-02-18T12:51:37.235Z,74
2023-02-18T12:53:31.047Z,75
2023-02-18T12:55:31.199Z,74
2023-02-18T12:57:33.134Z,74
2023-02-18T12:59:31.197Z,74
2023-02-18T13:01:33.298Z,75
2023-02-18T13:03:33.960Z,74
2023-02-18T13:05:31.090Z,75
2023-02-18T13:07:31.057Z,75
2023-02-18T13:09:33.959Z,74
2023-02-18T13:11:32.305Z,75
2023-02-18T13:13:31.506Z,74
2023-02-18T13:15:34.185Z,75
2023-02-18T13:17:32.048Z,75
2023-02-18T13:19:31.139Z,75
2023-02-18T13:23:34.093Z,74
2023-02-18T13:25:31.055Z,74
2023-02-18T13:29:30.993Z,74
2023-02-18T13:33:34.254Z,74
2023-02-18T13:35:34.232Z,73
2023-02-18T13:37:35.742Z,74
2023-02-18T13:39:33.992Z,74
2023-02-18T13:41:31.073Z,74
2023-02-18T13:43:31.810Z,74
2023-02-18T13:47:30.751Z,74
2023-02-18T13:49:30.307Z,74
2023-02-18T13:51:33.985Z,74
2023-02-18T13:53:34.182Z,74
2023-02-18T13:55:32.317Z,74
2023-02-18T13:59:31.035Z,73
2023-02-18T14:01:33.208Z,75
2023-02-18T14:03:33.591Z,73
2023-02-18T14:05:31.190Z,73
2023-02-18T14:07:31.113Z,72
2023-02-18T14:11:31.028Z,71
2023-02-18T14:13:29.203Z,71
2023-02-18T14:15:34.205Z,69
2023-02-18T14:17:30.983Z,70
2023-02-18T14:19:31.601Z,66
2023-02-18T14:21:34.904Z,68
2023-02-18T14:23:34.309Z,68
2023-02-18T14:25:31.096Z,67
2023-02-18T14:29:31.423Z,68
2023-02-18T14:31:33.337Z,66
2023-02-18T14:35:31.043Z,67
2023-02-18T14:37:31.036Z,67
2023-02-18T14:41:31.065Z,69
2023-02-18T14:43:30.914Z,68
2023-02-18T14:45:34.366Z,69
2023-02-18T14:47:30.713Z,69
2023-02-18T14:49:31.218Z,68
2023-02-18T14:53:31.077Z,68
2023-02-18T14:55:31.176Z,68
2023-02-18T14:59:34.219Z,67
2023-02-18T15:01:31.135Z,67
2023-02-18T15:03:34.292Z,68
2023-02-18T15:05:31.560Z,67
2023-02-18T15:07:31.076Z,67
2023-02-18T15:09:34.033Z,69
2023-02-18T15:11:34.802Z,67
2023-02-18T15:13:31.215Z,67
2023-02-18T15:17:31.384Z,70
2023-02-18T15:19:31.119Z,68
2023-02-18T15:21:32.011Z,69
2023-02-18T15:23:31.269Z,69
2023-02-18T15:25:32.362Z,68
2023-02-18T15:29:34.298Z,72
2023-02-18T15:31:31.271Z,69
2023-02-18T15:33:33.304Z,70
2023-02-18T15:35:31.135Z,68
2023-02-18T15:37:31.215Z,69
2023-02-18T15:41:32.375Z,69
2023-02-18T15:43:31.052Z,70
2023-02-18T15:47:31.222Z,69
2023-02-18T15:49:34.210Z,70
2023-02-18T15:51:33.988Z,69
2023-02-18T15:53:34.059Z,69
2023-02-18T15:55:30.808Z,70
2023-02-18T15:59:31.474Z,69
2023-02-18T16:01:30.682Z,70
2023-02-18T16:03:33.825Z,69
2023-02-18T16:05:34.211Z,70
2023-02-18T16:07:33.538Z,70
2023-02-18T16:09:31.184Z,70
2023-02-18T16:11:33.738Z,70
2023-02-18T16:13:37.259Z,70
2023-02-18T16:15:33.005Z,70
2023-02-18T16:17:31.353Z,70
2023-02-18T16:19:31.159Z,70
2023-02-18T16:21:33.970Z,70
2023-02-18T16:23:31.226Z,70
2023-02-18T16:25:30.754Z,70
2023-02-18T16:29:30.806Z,70
2023-02-18T16:31:30.757Z,71
2023-02-18T16:33:34.023Z,71
2023-02-18T16:35:40.554Z,71
2023-02-18T16:37:31.377Z,71
2023-02-18T16:41:30.655Z,71
2023-02-18T16:43:34.135Z,71
2023-02-18T16:47:32.734Z,72
2023-02-18T16:49:34.162Z,72
2023-02-18T16:51:34.026Z,72
2023-02-18T16:53:33.847Z,73
2023-02-18T16:55:32.377Z,72
2023-02-18T16:59:30.827Z,73
2023-02-18T17:01:34.403Z,73
2023-02-18T17:03:34.142Z,73
2023-02-18T17:05:31.116Z,74
2023-02-18T17:07:30.838Z,73
2023-02-18T17:11:32.747Z,73
2023-02-18T17:13:31.405Z,73
2023-02-18T17:15:33.529Z,73
2023-02-18T17:17:31.451Z,74
2023-02-18T17:19:37.602Z,74
2023-02-18T17:23:31.594Z,74
2023-02-18T17:25:34.226Z,74
2023-02-18T17:27:34.296Z,74
2023-02-18T17:29:31.145Z,74
2023-02-18T17:33:35.767Z,74
2023-02-18T17:35:34.320Z,75
2023-02-18T17:37:32.899Z,74
2023-02-18T17:41:32.336Z,75
2023-02-18T17:43:34.181Z,74
2023-02-18T17:45:33.425Z,75
2023-02-18T17:47:31.089Z,75
2023-02-18T17:49:34.157Z,75
2023-02-18T17:51:32.783Z,75
2023-02-18T17:53:31.110Z,75
2023-02-18T17:55:31.126Z,75
2023-02-18T17:59:34.075Z,75
2023-02-18T18:01:33.383Z,75
2023-02-18T18:05:31.058Z,75
2023-02-18T18:07:32.874Z,76
2023-02-18T18:09:32.169Z,76
2023-02-18T18:11:31.046Z,75
2023-02-18T18:13:34.057Z,75
2023-02-18T18:17:35.854Z,76
2023-02-18T18:19:30.756Z,75
2023-02-18T18:23:31.025Z,76
2023-02-18T18:25:34.289Z,76
2023-02-18T18:29:34.242Z,75
2023-02-18T18:31:33.421Z,74
2023-02-18T18:35:31.085Z,75
2023-02-18T18:37:31.007Z,75
2023-02-18T18:41:31.111Z,75
2023-02-18T18:43:32.867Z,75
2023-02-18T18:47:32.199Z,75
2023-02-18T18:51:33.952Z,75
2023-02-18T18:53:31.114Z,75
2023-02-18T18:55:31.115Z,75
2023-02-18T18:59:30.993Z,75
2023-02-18T19:01:34.365Z,75
2023-02-18T19:05:34.190Z,75
2023-02-18T19:07:34.328Z,76
2023-02-18T19:09:33.892Z,76
2023-02-18T19:11:34.194Z,75
2023-02-18T19:13:33.268Z,76
2023-02-18T19:15:33.973Z,76
2023-02-18T19:17:33.984Z,76
2023-02-18T19:19:33.240Z,77
2023-02-18T19:21:34.212Z,76
2023-02-18T19:23:34.369Z,77
2023-02-18T19:25:34.262Z,77
2023-02-18T19:29:31.127Z,77
2023-02-18T19:33:33.783Z,77
2023-02-18T19:35:31.912Z,77
2023-02-18T19:37:31.172Z,78
2023-02-18T19:41:34.251Z,78
2023-02-18T19:43:31.497Z,78
2023-02-18T19:47:30.022Z,79
2023-02-18T19:49:31.141Z,79
2023-02-18T19:53:31.206Z,79
2023-02-18T19:55:31.151Z,79
2023-02-18T19:59:33.243Z,79
2023-02-18T20:01:31.163Z,80
2023-02-18T20:05:30.718Z,79
2023-02-18T20:07:30.902Z,79
2023-02-18T20:11:31.366Z,80
2023-02-18T20:13:31.172Z,80
2023-02-18T20:17:31.559Z,80
2023-02-18T20:19:31.924Z,80
2023-02-18T20:23:34.261Z,80
2023-02-18T20:25:31.150Z,80
2023-02-18T20:29:32.858Z,80
2023-02-18T20:31:31.205Z,80
2023-02-18T20:33:34.095Z,80
2023-02-18T20:35:31.129Z,81
2023-02-18T20:37:31.549Z,81
2023-02-18T20:41:34.217Z,81
2023-02-18T20:43:34.266Z,81
2023-02-18T20:45:33.856Z,82
2023-02-18T20:47:31.172Z,82
2023-02-18T20:49:30.875Z,82
2023-02-18T20:53:32.302Z,82
2023-02-18T20:55:34.223Z,82
2023-02-18T20:57:33.588Z,82
2023-02-18T20:59:31.162Z,82
2023-02-18T21:01:34.248Z,83
2023-02-18T21:03:33.892Z,83
2023-02-18T21:05:31.052Z,83
2023-02-18T21:07:31.395Z,83
2023-02-18T21:11:31.117Z,83
2023-02-18T21:13:31.019Z,83
2023-02-18T21:17:33.880Z,84
2023-02-18T21:19:31.593Z,84
2023-02-18T21:21:35.050Z,84
2023-02-18T21:23:31.111Z,84
2023-02-18T21:25:34.221Z,84
2023-02-18T21:29:31.395Z,84
2023-02-18T21:31:31.211Z,84
2023-02-18T21:35:30.898Z,84
2023-02-18T21:37:31.107Z,84
2023-02-18T21:41:32.726Z,84
2023-02-18T21:43:31.382Z,84
2023-02-18T21:47:31.151Z,84
2023-02-18T21:49:31.152Z,84
2023-02-18T21:53:31.950Z,84
2023-02-18T21:55:32.191Z,84
2023-02-18T21:57:34.133Z,84
2023-02-18T21:59:34.326Z,84
2023-02-18T22:01:30.582Z,84
2023-02-18T22:03:34.323Z,84
2023-02-18T22:05:31.013Z,84
2023-02-18T22:07:37.383Z,84
2023-02-18T22:11:31.196Z,84
2023-02-18T22:13:34.219Z,84
2023-02-18T22:17:31.167Z,84
2023-02-18T22:19:35.833Z,84
2023-02-18T22:23:31.155Z,84
2023-02-18T22:25:30.768Z,84
2023-02-18T22:31:31.286Z,84
2023-02-18T22:35:31.172Z,84
2023-02-18T22:37:31.198Z,84
2023-02-18T22:39:33.904Z,84
2023-02-18T22:41:30.879Z,84
2023-02-18T22:43:32.025Z,84
2023-02-18T22:45:34.333Z,84
2023-02-18T22:47:31.153Z,84
2023-02-18T22:49:31.102Z,84
2023-02-18T22:53:34.262Z,84
2023-02-18T22:55:32.311Z,84
2023-02-18T22:57:34.095Z,84
2023-02-18T22:59:33.944Z,84
2023-02-18T23:01:32.167Z,84
2023-02-18T23:03:33.440Z,84
2023-02-18T23:05:31.105Z,84
2023-02-18T23:07:37.892Z,84
2023-02-18T23:11:32.357Z,83
2023-02-18T23:13:34.296Z,84
2023-02-18T23:15:33.999Z,84
2023-02-18T23:17:32.706Z,84
2023-02-18T23:19:31.171Z,84
2023-02-18T23:23:32.893Z,83
2023-02-18T23:25:31.154Z,83
2023-02-18T23:29:31.436Z,83
2023-02-18T23:31:33.740Z,83
2023-02-18T23:35:32.927Z,82
2023-02-18T23:37:31.217Z,82
2023-02-18T23:39:34.010Z,82
2023-02-18T23:41:31.079Z,82
2023-02-18T23:43:34.280Z,82
2023-02-18T23:45:34.113Z,82
2023-02-18T23:47:31.090Z,82
2023-02-18T23:49:32.783Z,82
2023-02-18T23:51:34.272Z,82
2023-02-18T23:53:31.140Z,82
2023-02-18T23:55:32.396Z,82
2023-02-18T23:57:34.012Z,82
2023-02-18T23:59:31.030Z,82
